Thomas Shaw

Chefscout - Bolton Wanderers
3 Dez 2028
Sonntag
Verarbeitung

Persönlichkeit

Anpassungsfähigkeit (4) Ehrgeiz (19) Kontroverse (8) Loyalität (8) Druck (20) Professionalität (7) Fairness (8) Temperament (20)

Profil

Trainerstil Demokratisch
Lizenz Nationale B
Entschlossenheit 4
Menschenführung 9
Motivation 5
Disziplin 4
Arbeitszufriedenheit
100%
Ermüdung
0%
Rolle Chefscout
Gehalt 84.5K p/W
Vertrag 14.03.2030

Leistung

Verhalten Gut
Trainingseffektivität
45%
Spielerentwicklung
45%
Verletzungsprävention
20%
Taktische Umsetzung
45%

Letzte Ereignisse

Nahm an einer Scouting-Besprechung teil jetzt
Nahm an einer Scouting-Besprechung teil jetzt
Empfahl ein Transferziel jetzt
Empfahl ein Transferziel jetzt
Empfahl ein Transferziel jetzt
Empfahl ein Transferziel jetzt
Spieler begutachtet jetzt
Spieler begutachtet jetzt

Aktuell beobachtet

208
Spieler Verein Status Fähigkeit Vertrauen Beobachtet Zuletzt beobachtet Letzte Stimme
Miguel Figueiredo Benfica Aktiv 128 / 129 40% 5 02.12.2028 -
Louis Page Leicester City Aktiv 137 / 137 40% 1 02.12.2028 -
Filip Reshane Stabaek Aktiv 109 / 106 40% 2 30.11.2028 -
Aidan Borland Espanyol Aktiv 111 / 116 40% 1 30.11.2028 -
José Neto Benfica Aktiv 124 / 131 40% 1 30.11.2028 -
Josh Torquato FC Dallas Aktiv 87 / 92 40% 6 29.11.2028 -
Celías Ingenthron Platense Aktiv 117 / 117 40% 4 29.11.2028 -
Honest Ahanor Atalanta Aktiv 138 / 153 40% 8 28.11.2028 -
Máximo Munarriz San Telmo Aktiv 101 / 116 40% 3 28.11.2028 -
Mateo Faure BATE Aktiv 95 / 101 40% 5 28.11.2028 -
Gideon Manaseh Ikorodu City Aktiv 95 / 92 40% 8 26.11.2028 -
Tyson Pearce St. Louis CITY SC Aktiv 95 / 113 40% 2 26.11.2028 -
Diego León Rotherham United Aktiv 131 / 129 40% 2 26.11.2028 -
Ivan Borges Defensores Aktiv 81 / 97 40% 5 25.11.2028 -
Bernardo Lima Porto Aktiv 114 / 126 40% 2 24.11.2028 -
Jonny Shore New York City Aktiv 102 / 104 40% 4 24.11.2028 -
Estanislao López Colón Aktiv 92 / 86 40% 1 22.11.2028 -
Máximo Magnoli Ferro Carril Oeste Aktiv 102 / 91 40% 1 22.11.2028 -
Abubakar Adams Aduana Stars Aktiv 94 / 93 40% 1 22.11.2028 -
Rafael Mota Sporting CP Aktiv 118 / 131 40% 2 18.11.2028 -
Aytor Herrera Mineros de Guayana Aktiv 83 / 103 40% 2 17.11.2028 -
Malte Hallin GIF Sundsvall Aktiv 87 / 84 40% 3 17.11.2028 -
Daniel Banjaqui Benfica Aktiv 126 / 136 40% 3 16.11.2028 -
Veljko Milosavljević Bournemouth Aktiv 146 / 148 40% 2 16.11.2028 -
Noah Markmann Esbjerg Aktiv 122 / 120 40% 1 16.11.2028 -
Ntando Tshwana Jomo Cosmos Aktiv 86 / 102 40% 1 15.11.2028 -
Ronan Kpakio AC Milan Aktiv 126 / 130 40% 1 15.11.2028 -
Jan Cedilnik Chikhura Aktiv 86 / 99 40% 4 14.11.2028 -
Snyder Brunell Seattle Sounders Aktiv 96 / 93 40% 5 14.11.2028 -
Giovanni Leoni Lincoln City Aktiv 143 / 152 40% 8 14.11.2028 -
Tiago Gordillo San Miguel Aktiv 81 / 102 40% 5 12.11.2028 -
Vitaly Bondarev Ural Aktiv 109 / 121 40% 1 12.11.2028 -
Óscar Hinojosa Metropolitanos Aktiv 91 / 98 40% 6 11.11.2028 -
Harbor Miller LA Galaxy Aktiv 107 / 97 40% 2 11.11.2028 -
Alejandro Tapia Central Norte Aktiv 82 / 91 40% 4 11.11.2028 -
Riquelme Thompson-Jones Accrington Stanley Aktiv 111 / 124 40% 2 07.11.2028 -
Jan Bürger Northampton Town Aktiv 125 / 122 40% 4 06.11.2028 -
Ian James Sporting Kansas City Aktiv 94 / 83 40% 1 06.11.2028 -
Aiden Hezarkhani Real Salt Lake Aktiv 101 / 113 40% 1 04.11.2028 -
Diego Cheuquepal Racing Aktiv 105 / 96 40% 2 02.11.2028 -
Colin Guske Orlando City Aktiv 101 / 106 40% 5 01.11.2028 -
Chris Rigg West Ham United Aktiv 142 / 153 40% 1 01.11.2028 -
Harrison Armstrong Ipswich Town Aktiv 138 / 152 40% 3 30.10.2028 -
Andrija Bulatović Chamois Niortais Aktiv 131 / 141 40% 2 28.10.2028 -
Onyeuche Ujunwa Ikorodu City Aktiv 91 / 98 40% 5 27.10.2028 -
Santiago Espíndola River Plate Aktiv 112 / 121 40% 1 22.10.2028 -
Jude Terry Los Angeles Football Club Aktiv 90 / 113 40% 1 21.10.2028 -
Somtochuwku Ezenabo Kwara United Aktiv 91 / 107 40% 3 18.10.2028 -
Eric Klein Real Salt Lake Aktiv 100 / 108 40% 2 18.10.2028 -
Mauro Matorras Central Norte Aktiv 91 / 88 40% 1 18.10.2028 -
Drew Baiera New York City Aktiv 101 / 99 40% 3 15.10.2028 -
Alexandr Derzhinskiy Slavia Mozyr Aktiv 87 / 93 40% 1 14.10.2028 -
Tyler Fletcher Rotherham United Aktiv 114 / 131 40% 4 13.10.2028 -
Matías Satas Grimsby Town Aktiv 105 / 109 40% 1 09.10.2028 -
Lautaro Dufur Juventud Aktiv 104 / 103 40% 1 09.10.2028 -
Matthew Dos Santos New York Red Bulls Aktiv 94 / 90 40% 1 07.10.2028 -
Anderson Acevedo Bogota Aktiv 84 / 82 40% 1 05.10.2028 -
Tobías Ramírez River Plate Aktiv 127 / 134 40% 1 04.10.2028 -
Kerim Alajbegović Modena Aktiv 139 / 138 40% 1 16.08.2028 -
Emmanuel Ndubueze Shooting Stars Aktiv 88 / 92 40% 1 16.08.2028 -
Nadir Sánchez Central Córdoba SdE Aktiv 93 / 96 40% 1 16.08.2028 -
Brayan Aragón Barnsley Bericht bereit 102 / 108 83% 1 14.08.2028 -
Tommy Dobson-Ventura Southampton Bericht bereit 108 / 117 83% 1 07.08.2028 -
Malcolm Ebiowei Gillingham Verloren 113 / 102 79% 1 26.06.2028 -
Ryan Kavuma-McQueen Accrington Stanley Aktiv 121 / 133 40% 1 06.06.2028 -
Fletcher Boyd Accrington Stanley Aktiv 102 / 103 40% 1 06.06.2028 -
Ryan Oné Sheffield United Aktiv 118 / 129 40% 1 06.06.2028 -
Martim Cunha Porto Aktiv 104 / 110 40% 4 02.06.2028 -
Federico Matarán Giana Erminio Verloren 107 / 116 40% 2 02.06.2028 -
Amine Boukamir Charleroi Aktiv 106 / 115 40% 2 13.02.2028 -
Matvey Bardachev Zenit Aktiv 112 / 103 40% 1 11.02.2028 -
Trey Nyoni Rotherham United Aktiv 133 / 136 40% 6 10.02.2028 -
Lucas Camejo River Plate Aktiv 95 / 88 40% 3 08.02.2028 -
Nicolas Sport Recife Aktiv 105 / 126 40% 1 08.02.2028 -
Mao Hosoya Santos Aktiv 134 / 135 67% 1 01.01.2028 Befürworten
Matěj Ryneš AS Nancy Aktiv 122 / 123 67% 1 01.01.2028 Befürworten
Nana Nuhu WAFA Aktiv 95 / 107 40% 1 31.12.2027 -
Mateus Mané Burnley Aktiv 133 / 142 40% 1 31.12.2027 -
Lucas Bergvall Tottenham Aktiv 152 / 166 40% 4 30.11.2027 -
Ignacio Fernández Boston River Aktiv 84 / 86 40% 3 30.11.2027 -
Caleb Yirenkyi Coventry City Aktiv 147 / 150 40% 5 29.11.2027 -
Josh Acheampong Everton Aktiv 136 / 140 40% 4 29.11.2027 -
Joel Ezra Enyimba Aktiv 91 / 96 40% 5 28.11.2027 -
Jon Esenga IF Elfsborg Aktiv 92 / 99 40% 1 27.11.2027 -
Agustín Obregón River Plate Aktiv 109 / 124 40% 2 24.11.2027 -
Hosea Michael Remo Stars Aktiv 93 / 99 40% 3 23.11.2027 -
Oscar Steinke Brånby Hammarby Aktiv 115 / 106 40% 1 23.11.2027 -
Olivier Mambwa Young Boys Aktiv 111 / 123 40% 1 23.11.2027 -
Francisco Machis Llaneros Aktiv 82 / 84 40% 3 19.11.2027 -
Matias Siltanen Malmo FF Aktiv 129 / 129 40% 3 18.11.2027 -
Tobias Moi Lillestrom Aktiv 110 / 99 40% 1 18.11.2027 -
Juan Camilo Córdoba Deportivo Pereira Aktiv 87 / 82 40% 2 14.11.2027 -
Diego Vargas Universidad de Concepcion Aktiv 98 / 98 40% 1 14.11.2027 -
Victor Hernandez Santa Fe Aktiv 127 / 108 40% 5 13.11.2027 -
Yury Oyarzo Racing Aktiv 92 / 91 40% 2 12.11.2027 -
Adrian Skogmar Malmo FF Aktiv 104 / 130 40% 2 11.11.2027 -
Hugo Rojas Instituto Aktiv 94 / 99 40% 1 10.11.2027 -
Esquerdinha Notts County Aktiv 120 / 135 40% 2 05.11.2027 -
Ayden Heaven Portsmouth Aktiv 154 / 144 40% 3 03.11.2027 -
Mohamed Moussa Koïta Mathare United Aktiv 92 / 113 40% 1 03.11.2027 -
Adrian Gill Atlanta United FC Aktiv 91 / 92 40% 3 31.10.2027 -
Nazareno Roselli Defensa y Justicia Aktiv 112 / 134 40% 1 27.10.2027 -
Josh Nichols Oldham Athletic Aktiv 127 / 117 40% 1 26.10.2027 -
Kelechi Onwe Ikorodu City Aktiv 84 / 101 40% 1 26.10.2027 -
Matthew Litherland Harrogate Town Aktiv 118 / 120 40% 1 25.10.2027 -
Matías Canedo Rampla Juniors Aktiv 94 / 75 40% 1 14.10.2027 -
Onuorah Onyedika Kun Khalifat Aktiv 89 / 92 40% 1 07.10.2027 -
Lenny Agbaire Rotherham United Aktiv 105 / 109 69% 1 02.08.2027 Befürworten
Samuele di Benedetto Twente Verloren 122 / 129 40% 3 31.05.2027 -
Pedro Vian Seewald Dolomiti Bellunesi Aktiv 87 / 104 40% 2 31.05.2027 -
Mpho Khethang FC Diarra Aktiv 75 / 97 40% 3 30.05.2027 -
Chari Giwa US Bougouni Aktiv 76 / 74 40% 5 30.05.2027 -
Bade Aluko Leicester City Aktiv 118 / 113 40% 2 30.05.2027 -
Issa Yusuf Shooting Stars Aktiv 89 / 98 40% 1 26.05.2027 -
Andrea Bertoncini Triestina Aktiv 89 / 101 40% 2 24.05.2027 -
Jenson Jones Walsall Aktiv 84 / 102 40% 1 23.05.2027 -
Sascha Britschgi AC Milan Aktiv 113 / 126 40% 2 20.05.2027 -
Gonçalo Oliveira Benfica Aktiv 105 / 116 40% 3 17.05.2027 -
Ahmed Akinyele Remo Stars Aktiv 85 / 106 40% 1 16.05.2027 -
Riyad Idrissi Cagliari Aktiv 126 / 129 40% 1 15.05.2027 -
Charlie Gray Fleetwood Town Aktiv 84 / 93 40% 5 14.05.2027 -
Daniel Dennis Ikorodu City Aktiv 98 / 86 40% 1 11.05.2027 -
Bence Dárdai VfL Wolfsburg Aktiv 122 / 129 40% 1 08.05.2027 -
Kamaldeen Atiemo Wa All Stars Aktiv 90 / 107 40% 1 06.05.2027 -
Zane Albarus Shrewsbury Town Aktiv 102 / 103 40% 2 05.05.2027 -
Riley Owen Stevenage Aktiv 104 / 104 40% 5 02.05.2027 -
Kazunari Kita Real Sociedad Aktiv 92 / 113 40% 1 27.04.2027 -
Rivaldo Mkhize Black Aces Aktiv 70 / 74 40% 1 26.04.2027 -
Tiago Freitas Benfica Aktiv 117 / 123 40% 2 24.04.2027 -
Afriyie Sulemana WAFA Aktiv 84 / 90 40% 1 21.04.2027 -
Godwin Oham Warri Wolves Aktiv 79 / 99 40% 1 16.04.2027 -
Edwin Asamoah Berekum Chelsea Aktiv 81 / 78 40% 1 15.04.2027 -
Eliás Montiel Borussia Dortmund Aktiv 126 / 145 40% 1 14.04.2027 -
Dean Jali Platinum Stars Aktiv 80 / 91 40% 1 08.04.2027 -
Dennis Cirkin Queens Park Rangers Aktiv 124 / 133 40% 1 25.01.2027 -
Jack Currie Oxford United Aktiv 113 / 112 40% 1 25.01.2027 -
Romano Floriani Mussolini Blackpool Aktiv 117 / 115 40% 1 25.01.2027 -
Habib Diarra Sunderland Aktiv 145 / 138 40% 2 19.01.2027 -
Adam Randell Bristol City Aktiv 133 / 122 40% 1 19.01.2027 -
Will Dennis Milton Keynes Dons Aktiv 97 / 107 40% 3 02.01.2027 -
Tariq Lamptey Queens Park Rangers Aktiv 143 / 143 40% 1 02.01.2027 -
Ronnie Edwards Queens Park Rangers Aktiv 132 / 133 40% 1 02.01.2027 -
Sampson Dweh Mallorca Aktiv 133 / 134 66% 1 01.01.2027 Befürworten
Isaiah Jones Luton Town Aktiv 116 / 119 40% 1 30.12.2026 -
Anthony Patterson Wrexham Aktiv 138 / 117 40% 4 28.12.2026 -
Myles Roberts Cambridge United Aktiv 110 / 99 40% 2 28.12.2026 -
Eddie Nketiah Crystal Palace Aktiv 133 / 142 40% 1 27.12.2026 -
John Amah Plateau United Aktiv 89 / 101 40% 4 25.12.2026 -
Jordan Amissah Burton Albion Aktiv 93 / 107 40% 2 25.12.2026 -
Alexandr Koryakin Krasnodar Aktiv 123 / 102 40% 1 25.12.2026 -
Radek Vítek Middlesbrough Aktiv 141 / 136 40% 5 23.12.2026 -
Luka Gavran Toronto FC Aktiv 111 / 97 40% 1 23.12.2026 -
Roman Celentano FC Cincinnati Aktiv 108 / 124 40% 4 22.12.2026 -
Itumeleng Grobler Free State Stars Aktiv 86 / 114 40% 5 22.12.2026 -
Lukas Jensen Millwall Aktiv 127 / 126 40% 2 22.12.2026 -
Elia Caprile Cagliari Aktiv 144 / 145 40% 1 21.12.2026 -
Gregory Sekyere Aduana Stars Aktiv 83 / 80 40% 1 19.12.2026 -
Simphiwe Selepe Orlando Pirates Aktiv 114 / 112 40% 2 18.12.2026 -
Michael Atata Ikorodu City Aktiv 101 / 104 40% 2 18.12.2026 -
Daniel Kyerewaa Reading Aktiv 122 / 110 40% 1 18.12.2026 -
Joe Gelhardt Hull City Aktiv 128 / 142 40% 1 18.12.2026 -
Thalente Mbatha Orlando Pirates Aktiv 105 / 114 40% 1 18.12.2026 -
Bongani Zungu Ajax Cape Town Aktiv 140 / 140 40% 4 16.12.2026 -
Brian Bwire Polokwane City Aktiv 100 / 84 40% 3 12.12.2026 -
John Pulskamp Sporting Kansas City Aktiv 119 / 120 40% 1 12.12.2026 -
Marvin Keller Chelsea Aktiv 135 / 131 40% 2 10.12.2026 -
Felix Kyei Medeama Aktiv 83 / 101 40% 2 09.12.2026 -
Elliot Anderson Manchester City Aktiv 161 / 151 40% 1 09.12.2026 -
Ani Ozoemena Rivers United Aktiv 107 / 99 40% 2 07.12.2026 -
Telasco Segovia Inter Miami CF Aktiv 121 / 146 40% 2 06.12.2026 -
Josh Keeley Luton Town Aktiv 130 / 121 40% 1 06.12.2026 -
Vincent Edafe Warri Wolves Aktiv 98 / 100 40% 1 06.12.2026 -
Matt O'Riley Brighton Aktiv 138 / 134 40% 1 03.12.2026 Mehr Infos nötig
Sławomir Abramowicz Jagiellonia Aktiv 115 / 126 40% 1 30.11.2026 -
Olalekan Adeleke Remo Stars Aktiv 94 / 86 40% 1 29.11.2026 -
Reece Braithwaite Bloemfontein Celtic Aktiv 101 / 121 40% 1 27.11.2026 -
Mbekezeli Mbokazi Chicago Fire Aktiv 134 / 134 40% 1 27.11.2026 -
Fran Vieites Walsall Aktiv 119 / 106 40% 1 25.11.2026 -
Lucas Lund Viborg Aktiv 119 / 106 40% 1 25.11.2026 -
Ameh Godwin Nasarawa United Aktiv 89 / 102 40% 1 24.11.2026 -
Murphy Cooper Plymouth Argyle Aktiv 119 / 120 40% 3 23.11.2026 -
Philippe Ndinga Philadelphia Union Aktiv 110 / 126 40% 1 23.11.2026 -
Talles Magno New York City Aktiv 117 / 142 40% 1 21.11.2026 -
Brooke Norton-Cuffy Hull City Aktiv 144 / 137 40% 1 21.11.2026 -
Marcus Bundgaard SonderjyskE Aktiv 101 / 106 40% 1 19.11.2026 -
Keisuke Osako Sanfrecce Hiroshima Aktiv 150 / 128 40% 1 19.11.2026 -
Pedro Porro Tottenham Aktiv 137 / 141 40% 1 17.11.2026 -
Patrick Schulte Columbus Crew Aktiv 121 / 115 40% 1 14.11.2026 -
Edmund Afful Hasaacas Aktiv 82 / 87 40% 1 12.11.2026 -
Arthur Beroe Aktiv 114 / 113 40% 1 11.11.2026 -
Nathan Trott Cardiff City Aktiv 132 / 116 40% 1 10.11.2026 -
Tomoki Hayakawa Kashima Antlers Aktiv 143 / 131 40% 1 10.11.2026 -
CJ dos Santos San Diego Football Club Aktiv 122 / 122 40% 1 08.11.2026 -
Conrad Wallem Djurgarden Aktiv 115 / 136 40% 1 07.11.2026 -
Edoardo Colombo Gzira United Aktiv 80 / 87 40% 1 06.11.2026 -
Martín Ojeda Orlando City Aktiv 121 / 133 40% 1 04.11.2026 -
Bénie Traoré New York City Aktiv 125 / 142 40% 1 04.11.2026 -
Isaac Boehmer Vancouver Whitecaps Aktiv 114 / 101 40% 1 02.11.2026 -
Reed Baker-Whiting Nashville SC Aktiv 94 / 95 40% 1 05.10.2026 -
Nico O'Reilly Manchester City Aktiv 159 / 166 40% 1 05.10.2026 -
Amin Boudri Los Angeles Football Club Aktiv 114 / 122 40% 1 12.09.2026 -
Clinton Jephta Niger Tornadoes Aktiv 85 / 92 40% 1 10.09.2026 -
Darren Yapi Colorado Rapids Aktiv 91 / 103 40% 1 09.09.2026 -
Andy Rojas New York Red Bulls Aktiv 100 / 98 40% 1 09.09.2026 -
Monty Batlhabane Polokwane City Aktiv 85 / 83 40% 1 07.09.2026 -
David Vazquez San Diego Football Club Aktiv 97 / 108 40% 1 31.08.2026 -
Hakim Sulemana Ashanti Gold Aktiv 95 / 110 40% 1 26.08.2026 -
Gerardo Valenzuela FC Cincinnati Aktiv 92 / 116 40% 1 11.08.2026 -